Terminal Aerodrome Forecast
Issued by NWS

Home | Current Version | Previous Version | Text Only | Print | Product List | Glossary On
Versions: 1 2 3 4 5 6 7 8 9 10 11 12 13 14 15 16 17 18 19 20 21 22 23 24 25 26 27
000
FTUS43 KDLH 221727
TAFHIB
TAF
KHIB 221727Z 2218/2318 00000KT P6SM SCT009
      TEMPO 2218/2219 BKN009
     FM221900 28006KT P6SM VCSH BKN045
      TEMPO 2222/2224 5SM -TSRA BKN030CB
     FM230200 29005KT 6SM BR SCT050
     FM230700 33004KT 4SM BR SCT015
     FM231200 36010KT P6SM BKN050=

USA.gov is the U.S. government's official web portal to all federal, state and local government web resources and services.